EA1DZR
43.31.48N 005.40.00W
IN73EM aprs.fi
zuletzt gehoert:
2021-12-02T07:31:46Z
zuerst gehoert:
2020-02-16T16:30:14Z

APRS Gijón/Xixón [IN73EM], 0 Stunde(n), EA1DZR [08:44:42, 0s].
EA1DZR 43.31.48N 005.40.00WIN73EM 0.356km N07:31:46ZMMDVM DVS 434.3500/434.3500 CC1
EA1FFA 43.31.53N 005.40.64WIN73DM 0.978km 299°WNW07:31:30ZMMDVM MMDVM HS Hat 438.8000/438.8000 CC1
EB1TK 43.32.22N 005.42.32WIN73DM 3.572km 299°WNW07:35:22ZWind 309°/005kn, Böen bis 013kn, Temp 10.00c, Regen 0.5mm, letzte 24h 17.0mm, seit 0h 17.0mm, Baro 1021.0h, Hum: 81%(3EB1TK-13)
LEEL 43.32.98N 005.41.71WIN73DN 3.895km 324°NW07:30:07ZHelipuerto de El Musel: LEAS 020630Z VRB03KT 9999 FEW030 SCT045 BKN060 10/05 Q1017 NOSIG=
EB1GEM 43.30.00N 005.36.07WIN73EM 5.788km 114°ESE07:43:29ZWX3in1Plus2.0 U=13.3V,T=??.?C/??.?F(3EB1GEM-3)
ED1ZAE 43.27.97N 005.40.54WIN73DL 6.174km 187°S07:31:24ZWIDE3-3 ESAS3-3 IN73DL WWW.EA1URG.ORG(3ED1ZAE-3)
2m Voice 145.5875 -0.600 Mhz(2ED1ZAE-C)
ED1ZAS 43.27.52N 005.40.17WIN73DL 6.968km 182°S07:32:19ZRD985 438.2250/430.6250 CC1
EA1IPU 43.26.21N 005.46.62WIN73CK 12.939km 224°SW07:30:07ZMMDVM MMDVM HS Hat 439.8000/439.8000 CC1
EA1ABW 43.24.77N 005.47.77WIN73CJ 15.965km 221°SW07:30:31ZMMDVM MMDVM HS Hat 439.8250/439.8250 CC1
LEGM 43.26.15N 005.49.84WIN73CK 16.289km 234°SW07:30:05ZHelipuerto de La Morgal: LEAS 020630Z VRB03KT 9999 FEW030 SCT045 BKN060 10/05 Q1017 NOSIG=
LEMR 43.25.83N 005.49.60WIN73CK 16.409km 232°SW07:30:06ZAerodromo de la Morgal: LEAS 020630Z VRB03KT 9999 FEW030 SCT045 BKN060 10/05 Q1017 NOSIG=
EA1FLQ 43.22.00N 005.36.35WIN73EI 17.893km 164°SSE07:30:35ZMMDVM DVMega 439.9750/439.9750 CC1
EA1FHR 43.28.72N 005.26.41WIN73GL 18.863km 105°ESE07:30:34ZMMDVM MMDVM HS Hat 439.1500/439.1500 CC1
EA1HWD 43.28.96N 005.26.30WIN73GL 18.912km 103°ESE07:30:48Z144.575FM Local frecuency VHF. 434.2500/434.2500 CC1
EA1AHA 43.32.72N 005.54.38WIN73BN 19.501km 278°W07:44:34ZWind 000°/014kn, Böen bis 019kn, Temp 10.00c, Regen 0.0mm, letzte 24h 0.0mm, seit 0h 0.0mm, Baro 1020.3h, Hum: 71%(3EA1AHA-13)
LEHU 43.22.63N 005.49.57WIN73CJ 20.578km 219°SW07:30:06ZHelipuerto del HUCA: LEAS 020630Z VRB03KT 9999 FEW030 SCT045 BKN060 10/05 Q1017 NOSIG=
ED1ZAY 43.29.47N 005.56.54WIN73AL 22.493km 262°W07:32:19ZRD625 438.3000/430.7000 CC1
ED1ZAU 43.23.04N 005.52.75WIN73BJ 22.982km 228°SW07:32:18ZRD625 438.5000/430.9000 CC1
33D00 43.21.63N 005.51.13WIN73BI 23.334km 220°SW07:03:23Z33-D-00 Protección Civil REMER / Delegación del Gobierno en Asturias
EA1YR 43.22.09N 005.51.86WIN73BI 23.342km 223°SW07:32:03ZMMDVM DVS 434.3500/434.3500 CC1
EA1JAY 43.21.54N 005.51.34WIN73BI 23.653km 220°SW07:30:08ZEA1JAY(3EA1JAY-2)
434.525MHz Nodo TETRA DMO(2EA1JAY-4)
EA1HJA 43.21.47N 005.52.09WIN73BI 24.399km 222°SW07:31:57Z IN73FL WX3IN1+ 2.0 - V=13.2V,TX TEMP=22.3C(3EA1HJA-2)
IN73FL WX3IN1+ 2.0 - V=14.0V,TX TEMP=43.0C(2EA1HJA)
EA1L 43.20.37N 005.51.13WIN73BI 25.156km 217°SW07:40:16Zea1l@ure.es V=13.6V,T=??.?C
Wind 245°/000kn, Böen bis 003kn, Temp 10.00c, Regen 1.3mm, letzte 24h 24.4mm, seit 0h 24.4mm, Baro 1016.7h, Hum: 0%(2EA1L-13)
EA1DHE 43.33.98N 005.58.57WIN73AN 25.439km 281°W07:31:53ZMMDVM DVS 434.3500/434.3500 CC1
EA1JBU 43.30.80N 005.16.20WIN73IM 31.979km 91°E07:30:08ZEA1JBU(3EA1JBU-2)
EA1JBE 43.30.90N 005.16.15WIN73IM 32.055km 91°E07:42:38ZMAIN QTH http://qrz.com/db/ea1jbe(3EA1JBE-1)
MAIN QTH http://qrz.com/db/ea1jbe(2EA1JBE-13)
EA1IMW 43.14.36N 005.46.93WIN73CF 32.726km 197°SSW07:31:47ZGRUPO RADIO GALENA (GRG) 433.4500/433.4500 CC1
EB1DGC 43.12.60N 005.45.59WIN73CF 35.440km 192°SSW07:30:49ZMMDVM MMDVM HS Hat 433.4500/433.4500 CC1
EA1JBL 43.12.28N 005.47.42WIN73CE 36.598km 196°SSW07:31:39ZMMDVM DVMega 435.3000/435.3000 CC1
EA1HWA 43.12.00N 005.47.40WIN73CE 37.104km 196°SSW07:30:24ZMMDVM MMDVM HS Hat 433.4500/433.4500 CC1
EA1RCG 43.09.45N 005.49.78WIN73CD 42.544km 198°SSW07:30:27ZGRUPO RADIO GALENA (GRG) 433.4500/433.4500 CC1
ED1ZAD 43.07.90N 005.38.52WIN73ED 43.364km 177°S07:23:59ZED1ZAD-3 APRS Digi/Igate(3ED1ZAD-3)
EC1KV 43.34.01N 006.16.01WIN63UN 48.627km 276°W07:43:35Z VOLT.=14.5 V - TEMP.=??.? C(3EC1KV-1)

aprs.pl 5.0.011w DL3EL © 2006-2021 [1172333]